SUSQUEDA - St. MARTÍ SACALM (La Selva)





Hora UTC 06:55
Temperatura 19.3 ºC
Humitat 92.4 %
Pressió 1011.5 hPa
Pluja 0.0 mm
Velocitat vent 9.0 km/h
Direcció vent WSW
Radiació solar 93.6 W/m²

Dades diàries 2024-07-21



Hora UTC (hivern +1h; estiu +2h)
Temperatura (ºC) Humitat (%) Pressió (hPa) Velocitat vent (km/h) Precipitació (mm) Radiació solar (W/m²)
Hora UTC Aire Humitat Pressió Vel. Dir. Vel. Max Dir. Intent. màx 5 min. Rad. Sol.
00:05 22.3 73.6 1010.5 9.8 NNE 9.8 ENE 0.0 0.1
00:10 22.2 73.4 1010.5 8.1 NE 13.1 N 0.0 0.1
00:15 22.3 73.5 1010.5 11.7 NNE 18.4 NNE 0.0 0.2
00:20 22.5 73.6 1010.6 11.7 NNE 18.4 N 0.0 0.2
00:25 22.5 74.1 1010.6 11.6 NNE 21.5 NNE 0.0 0.1
00:30 22.5 74.1 1010.6 11.1 NNE 19.8 N 0.0 0.1
00:35 22.4 75.5 1010.6 11.1 NNE 20.1 NNE 0.0 0.1
00:40 22.1 77.4 1010.6 9.8 NNE 20.5 NNE 0.0 0.1
00:45 22.0 78.5 1010.6 9.1 NE 17.3 NNE 0.0 0.1
00:50 21.8 79.3 1010.5 10.2 NNE 19.8 N 0.0 0.1
00:55 21.7 79.6 1010.4 9.3 NE 23.7 NE 0.0 0.1
01:00 21.6 80.3 1010.3 10.1 NNE 22.2 NNE 0.0 0.1
01:05 21.4 81.1 1010.3 12.0 NE 21.5 NE 0.0 0.2
01:10 21.4 81.5 1010.4 11.9 NE 24.0 NNE 0.0 0.1
01:15 21.2 82.0 1010.5 8.5 NE 15.5 NNE 0.0 0.1
01:20 21.2 82.4 1010.5 11.3 NE 20.1 ENE 0.0 0.1
01:25 21.2 82.2 1010.6 10.7 NE 16.2 ENE 0.0 0.1
01:30 21.2 82.4 1010.6 12.8 ENE 18.4 ENE 0.0 0.1
01:35 21.0 82.9 1010.5 13.9 ENE 20.5 ENE 0.0 0.1
01:40 20.9 82.7 1010.5 13.3 ENE 23.3 ENE 0.0 0.1
01:45 20.9 82.8 1010.5 13.1 NE 22.2 ENE 0.0 0.1
01:50 20.8 82.9 1010.6 10.4 ENE 18.4 ENE 0.0 0.1
01:55 20.7 83.7 1010.7 9.6 ENE 18.0 NE 0.0 0.2
02:00 20.5 84.4 1010.5 13.9 ENE 20.5 E 0.0 0.1
02:05 20.3 85.0 1010.5 13.7 ENE 21.9 NE 0.0 0.1
02:10 20.2 85.7 1010.5 15.0 ENE 23.3 NE 0.0 0.1
02:15 20.1 86.3 1010.4 16.7 ENE 23.0 ENE 0.0 0.1
02:20 20.0 86.9 1010.5 17.7 E 24.0 E 0.0 0.1
02:25 20.0 87.3 1010.5 16.4 E 22.2 E 0.0 0.1
02:30 19.9 87.8 1010.5 15.0 ENE 23.3 ENE 0.0 0.1
02:35 19.8 88.6 1010.6 14.5 ENE 22.2 E 0.0 0.1
02:40 19.7 89.3 1010.5 14.7 ENE 21.9 E 0.0 0.1
02:45 19.6 89.9 1010.6 18.0 E 24.7 E 0.0 0.1
02:50 19.5 90.5 1010.6 19.9 E 26.1 E 0.0 0.1
02:55 19.4 91.1 1010.6 18.0 E 26.1 E 0.0 0.1
03:00 19.3 91.5 1010.6 19.2 E 27.2 ENE 0.0 0.1
03:05 19.3 91.9 1010.5 19.7 E 29.3 ENE 0.0 0.1
03:10 19.3 92.4 1010.6 20.1 E 27.5 E 0.0 0.1
03:15 19.2 92.9 1010.8 16.4 E 25.8 ENE 0.0 0.1
03:20 19.2 93.1 1010.8 14.8 E 23.3 E 0.0 0.1
03:25 19.2 93.3 1011.0 15.8 E 25.4 ENE 0.0 0.1
03:30 19.1 93.3 1011.0 19.4 E 29.7 E 0.0 0.1
03:35 19.1 93.2 1011.1 13.1 E 24.7 ESE 0.0 0.1
03:40 19.0 93.1 1011.1 11.0 NE 23.3 NE 0.0 0.1
03:45 19.0 93.1 1011.2 11.1 NE 23.3 NNE 0.0 0.1
03:50 19.0 93.1 1011.2 10.0 ENE 19.1 ENE 0.0 0.1
03:55 19.0 93.3 1011.1 7.9 NE 14.5 NE 0.0 0.1
04:00 19.0 93.6 1011.1 6.4 NE 14.5 NE 0.0 0.1
04:05 19.0 93.9 1011.1 13.1 ENE 25.8 E 0.0 0.1
04:10 19.0 94.0 1011.0 13.8 ENE 29.3 ENE 0.0 0.1
04:15 19.0 94.0 1010.9 17.2 E 29.3 E 0.0 0.1
04:20 19.0 94.0 1010.9 15.0 E 25.1 ESE 0.0 0.2
04:25 18.8 93.3 1010.9 17.8 E 25.1 E 0.0 0.2
04:30 18.8 92.4 1010.9 16.8 E 26.5 E 0.0 0.5
04:35 18.8 90.8 1010.9 15.3 E 26.8 ENE 0.0 0.9
04:40 18.9 90.1 1010.9 14.0 E 21.9 E 0.0 1.9
04:45 18.9 89.0 1010.9 15.2 ENE 21.2 ENE 0.0 3.7
04:50 18.9 88.9 1010.9 16.3 ENE 24.0 ENE 0.0 4.9
04:55 18.8 89.4 1011.0 12.2 E 18.4 ENE 0.0 5.2
05:00 18.8 90.2 1011.1 7.7 ESE 15.2 ENE 0.0 5.8
05:05 18.8 90.9 1011.1 6.1 SE 11.7 ESE 0.0 7.5
05:10 18.8 91.5 1011.1 7.7 SE 12.0 SE 0.0 6.4
05:15 18.9 92.2 1011.1 7.0 SE 11.3 SE 0.0 8.0
05:20 18.7 92.1 1011.1 8.2 SE 15.5 ESE 0.0 15.9
05:25 18.7 92.7 1011.1 5.8 SE 11.0 ESE 0.0 25.2
05:30 18.7 92.7 1011.2 3.6 SSE 5.7 SSE 0.0 21.4
05:35 18.7 92.3 1011.2 2.5 S 5.3 S 0.0 34.4
05:40 18.7 92.1 1011.1 3.1 SSW 7.8 S 0.0 58.4
05:45 18.8 92.2 1011.1 4.4 WSW 7.4 W 0.0 125.1
05:50 18.9 92.3 1011.0 5.1 WSW 8.1 WSW 0.0 120.3
05:55 19.0 92.3 1011.0 7.3 WSW 11.7 W 0.0 112.8
06:00 19.1 92.2 1011.0 8.2 WSW 11.0 WSW 0.0 129.6
06:05 19.0 92.1 1011.0 10.1 WSW 12.7 WSW 0.0 135.6
06:10 19.0 91.8 1011.0 11.7 SW 16.6 SW 0.0 123.6
06:15 18.9 92.1 1011.0 11.1 SW 14.5 SW 0.0 165.0
06:20 18.9 92.2 1011.0 12.8 SW 16.6 SW 0.0 168.1
06:25 18.9 92.2 1011.1 14.6 SW 19.4 WSW 0.0 105.0
06:30 18.9 92.3 1011.2 15.7 SW 21.2 WSW 0.0 75.7
06:35 18.9 92.5 1011.3 13.0 SW 17.7 SW 0.0 78.4
06:40 19.0 92.4 1011.3 11.3 SW 16.6 SW 0.0 70.4
06:45 19.0 92.3 1011.4 10.5 SW 12.7 SSW 0.0 64.8
06:50 19.1 92.3 1011.4 11.2 SW 16.2 SSW 0.0 59.7
06:55 19.3 92.4 1011.5 9.0 WSW 14.8 SW 0.0 93.6
Màxima 22.6 94.0 1011.5 20.1 E 29.7 E 0.0 168.1
Mínima 18.6 73.4 1010.3
Total 0.0